sensor_id;sensor_type;location;lat;lon;timestamp;temperature;humidity
9482;DHT22;4779;48.062;11.672;2023-07-13T00:01:52;19.00;99.90
9482;DHT22;4779;48.062;11.672;2023-07-13T00:04:21;19.00;99.90
9482;DHT22;4779;48.062;11.672;2023-07-13T00:06:52;19.10;99.90
9482;DHT22;4779;48.062;11.672;2023-07-13T00:09:20;18.90;99.90
9482;DHT22;4779;48.062;11.672;2023-07-13T00:11:51;18.90;99.90
9482;DHT22;4779;48.062;11.672;2023-07-13T00:14:18;18.90;99.90
9482;DHT22;4779;48.062;11.672;2023-07-13T00:16:45;18.90;99.90
9482;DHT22;4779;48.062;11.672;2023-07-13T00:19:13;18.80;99.90
9482;DHT22;4779;48.062;11.672;2023-07-13T00:21:40;18.90;99.90
9482;DHT22;4779;48.062;11.672;2023-07-13T00:24:15;18.90;99.90
9482;DHT22;4779;48.062;11.672;2023-07-13T00:26:47;19.00;99.90
9482;DHT22;4779;48.062;11.672;2023-07-13T00:29:14;19.10;99.90
9482;DHT22;4779;48.062;11.672;2023-07-13T00:31:41;19.20;99.90
9482;DHT22;4779;48.062;11.672;2023-07-13T00:34:09;19.20;99.90
9482;DHT22;4779;48.062;11.672;2023-07-13T00:36:37;19.30;99.90
9482;DHT22;4779;48.062;11.672;2023-07-13T00:39:04;19.30;99.90
9482;DHT22;4779;48.062;11.672;2023-07-13T00:41:32;19.30;99.90
9482;DHT22;4779;48.062;11.672;2023-07-13T00:43:59;19.40;99.90
9482;DHT22;4779;48.062;11.672;2023-07-13T00:46:27;19.30;99.90
9482;DHT22;4779;48.062;11.672;2023-07-13T00:48:57;19.50;99.90
9482;DHT22;4779;48.062;11.672;2023-07-13T00:51:31;19.50;99.90
9482;DHT22;4779;48.062;11.672;2023-07-13T00:54:02;19.40;99.90
9482;DHT22;4779;48.062;11.672;2023-07-13T00:56:32;19.30;99.90
9482;DHT22;4779;48.062;11.672;2023-07-13T00:59:00;19.30;99.90
9482;DHT22;4779;48.062;11.672;2023-07-13T01:01:28;19.30;99.90
9482;DHT22;4779;48.062;11.672;2023-07-13T01:03:55;19.20;99.90
9482;DHT22;4779;48.062;11.672;2023-07-13T01:06:22;19.20;99.90
9482;DHT22;4779;48.062;11.672;2023-07-13T01:08:49;19.30;99.90
9482;DHT22;4779;48.062;11.672;2023-07-13T01:11:19;19.30;99.90
9482;DHT22;4779;48.062;11.672;2023-07-13T01:13:48;19.30;99.90
9482;DHT22;4779;48.062;11.672;2023-07-13T01:16:19;19.40;99.90
9482;DHT22;4779;48.062;11.672;2023-07-13T01:18:48;19.40;99.90
9482;DHT22;4779;48.062;11.672;2023-07-13T01:21:17;19.50;99.90
9482;DHT22;4779;48.062;11.672;2023-07-13T01:23:45;19.50;99.90
9482;DHT22;4779;48.062;11.672;2023-07-13T01:26:12;19.60;99.90
9482;DHT22;4779;48.062;11.672;2023-07-13T01:28:39;19.70;99.90
9482;DHT22;4779;48.062;11.672;2023-07-13T01:31:05;19.60;99.90
9482;DHT22;4779;48.062;11.672;2023-07-13T01:33:36;19.50;99.90
9482;DHT22;4779;48.062;11.672;2023-07-13T01:36:03;19.50;99.90
9482;DHT22;4779;48.062;11.672;2023-07-13T01:38:32;19.50;99.90
9482;DHT22;4779;48.062;11.672;2023-07-13T01:40:59;19.40;99.90
9482;DHT22;4779;48.062;11.672;2023-07-13T01:43:26;19.40;99.90
9482;DHT22;4779;48.062;11.672;2023-07-13T01:45:53;19.40;99.90
9482;DHT22;4779;48.062;11.672;2023-07-13T01:48:20;19.30;99.90
9482;DHT22;4779;48.062;11.672;2023-07-13T01:50:47;19.40;99.90
9482;DHT22;4779;48.062;11.672;2023-07-13T01:53:14;19.20;99.90
9482;DHT22;4779;48.062;11.672;2023-07-13T01:55:43;19.10;99.90
9482;DHT22;4779;48.062;11.672;2023-07-13T01:58:09;19.20;99.90
9482;DHT22;4779;48.062;11.672;2023-07-13T02:00:36;19.20;99.90
9482;DHT22;4779;48.062;11.672;2023-07-13T02:03:04;19.10;99.90
9482;DHT22;4779;48.062;11.672;2023-07-13T02:05:30;19.10;99.90
9482;DHT22;4779;48.062;11.672;2023-07-13T02:07:57;19.20;99.90
9482;DHT22;4779;48.062;11.672;2023-07-13T02:10:24;19.20;99.90
9482;DHT22;4779;48.062;11.672;2023-07-13T02:12:52;19.20;99.90
9482;DHT22;4779;48.062;11.672;2023-07-13T02:15:19;19.30;99.90
9482;DHT22;4779;48.062;11.672;2023-07-13T02:17:46;19.30;99.90
9482;DHT22;4779;48.062;11.672;2023-07-13T02:20:13;19.20;99.90
9482;DHT22;4779;48.062;11.672;2023-07-13T02:22:40;19.20;99.90
9482;DHT22;4779;48.062;11.672;2023-07-13T02:25:07;19.10;99.90
9482;DHT22;4779;48.062;11.672;2023-07-13T02:27:34;19.20;99.90
9482;DHT22;4779;48.062;11.672;2023-07-13T02:30:03;19.10;99.90
9482;DHT22;4779;48.062;11.672;2023-07-13T02:32:30;19.20;99.90
9482;DHT22;4779;48.062;11.672;2023-07-13T02:34:57;19.00;99.90
9482;DHT22;4779;48.062;11.672;2023-07-13T02:37:24;19.00;99.90
9482;DHT22;4779;48.062;11.672;2023-07-13T02:39:51;19.00;99.90
9482;DHT22;4779;48.062;11.672;2023-07-13T02:42:18;19.00;99.90
9482;DHT22;4779;48.062;11.672;2023-07-13T02:44:44;19.10;99.90
9482;DHT22;4779;48.062;11.672;2023-07-13T02:47:13;19.00;99.90
9482;DHT22;4779;48.062;11.672;2023-07-13T02:49:40;18.90;99.90
9482;DHT22;4779;48.062;11.672;2023-07-13T02:52:07;18.80;99.90
9482;DHT22;4779;48.062;11.672;2023-07-13T02:54:33;18.90;99.90
9482;DHT22;4779;48.062;11.672;2023-07-13T02:57:00;19.00;99.90
9482;DHT22;4779;48.062;11.672;2023-07-13T02:59:27;19.20;99.90
9482;DHT22;4779;48.062;11.672;2023-07-13T03:01:54;19.30;99.90
9482;DHT22;4779;48.062;11.672;2023-07-13T03:04:22;19.30;99.90
9482;DHT22;4779;48.062;11.672;2023-07-13T03:06:49;19.20;99.90
9482;DHT22;4779;48.062;11.672;2023-07-13T03:09:17;19.00;99.90
9482;DHT22;4779;48.062;11.672;2023-07-13T03:11:43;19.00;99.90
9482;DHT22;4779;48.062;11.672;2023-07-13T03:14:10;18.90;99.90
9482;DHT22;4779;48.062;11.672;2023-07-13T03:16:37;18.90;99.90
9482;DHT22;4779;48.062;11.672;2023-07-13T03:19:04;18.80;99.90
9482;DHT22;4779;48.062;11.672;2023-07-13T03:21:32;18.80;99.90
9482;DHT22;4779;48.062;11.672;2023-07-13T03:23:59;18.60;99.90
9482;DHT22;4779;48.062;11.672;2023-07-13T03:26:26;18.60;99.90
9482;DHT22;4779;48.062;11.672;2023-07-13T03:28:53;18.50;99.90
9482;DHT22;4779;48.062;11.672;2023-07-13T03:31:24;18.60;99.90
9482;DHT22;4779;48.062;11.672;2023-07-13T03:33:51;18.60;99.90
9482;DHT22;4779;48.062;11.672;2023-07-13T03:36:20;18.60;99.90
9482;DHT22;4779;48.062;11.672;2023-07-13T03:38:50;18.70;99.90
9482;DHT22;4779;48.062;11.672;2023-07-13T03:41:17;18.70;99.90
9482;DHT22;4779;48.062;11.672;2023-07-13T03:43:45;18.70;99.90
9482;DHT22;4779;48.062;11.672;2023-07-13T03:46:13;18.70;99.90
9482;DHT22;4779;48.062;11.672;2023-07-13T03:48:40;18.70;99.90
9482;DHT22;4779;48.062;11.672;2023-07-13T03:51:09;18.60;99.90
9482;DHT22;4779;48.062;11.672;2023-07-13T03:53:38;18.40;99.90
9482;DHT22;4779;48.062;11.672;2023-07-13T03:56:08;18.30;99.90
9482;DHT22;4779;48.062;11.672;2023-07-13T03:58:36;18.30;99.90
9482;DHT22;4779;48.062;11.672;2023-07-13T04:01:05;18.30;99.90
9482;DHT22;4779;48.062;11.672;2023-07-13T04:03:33;18.30;99.90
9482;DHT22;4779;48.062;11.672;2023-07-13T04:06:01;18.20;99.90
9482;DHT22;4779;48.062;11.672;2023-07-13T04:08:29;18.20;99.90
9482;DHT22;4779;48.062;11.672;2023-07-13T04:10:56;18.20;99.90
9482;DHT22;4779;48.062;11.672;2023-07-13T04:13:25;18.30;99.90
9482;DHT22;4779;48.062;11.672;2023-07-13T04:15:53;18.40;99.90
9482;DHT22;4779;48.062;11.672;2023-07-13T04:18:20;18.50;99.90
9482;DHT22;4779;48.062;11.672;2023-07-13T04:20:48;18.40;99.90
9482;DHT22;4779;48.062;11.672;2023-07-13T04:23:16;18.20;99.90
9482;DHT22;4779;48.062;11.672;2023-07-13T04:25:43;18.10;99.90
9482;DHT22;4779;48.062;11.672;2023-07-13T04:28:11;18.00;99.90
9482;DHT22;4779;48.062;11.672;2023-07-13T04:30:39;18.00;99.90
9482;DHT22;4779;48.062;11.672;2023-07-13T04:33:06;18.00;99.90
9482;DHT22;4779;48.062;11.672;2023-07-13T04:35:34;18.00;99.90
9482;DHT22;4779;48.062;11.672;2023-07-13T04:38:01;18.00;99.90
9482;DHT22;4779;48.062;11.672;2023-07-13T04:40:28;18.20;99.90
9482;DHT22;4779;48.062;11.672;2023-07-13T04:42:56;18.30;99.90
9482;DHT22;4779;48.062;11.672;2023-07-13T04:45:25;18.30;99.90
9482;DHT22;4779;48.062;11.672;2023-07-13T04:47:53;18.40;99.90
9482;DHT22;4779;48.062;11.672;2023-07-13T04:50:20;18.50;99.90
9482;DHT22;4779;48.062;11.672;2023-07-13T04:52:49;18.40;99.90
9482;DHT22;4779;48.062;11.672;2023-07-13T04:55:16;18.40;99.90
9482;DHT22;4779;48.062;11.672;2023-07-13T04:57:43;18.50;99.90
9482;DHT22;4779;48.062;11.672;2023-07-13T05:00:11;18.50;99.90
9482;DHT22;4779;48.062;11.672;2023-07-13T05:02:39;18.50;99.90
9482;DHT22;4779;48.062;11.672;2023-07-13T05:05:08;18.40;99.90
9482;DHT22;4779;48.062;11.672;2023-07-13T05:07:35;18.40;99.90
9482;DHT22;4779;48.062;11.672;2023-07-13T05:10:02;18.30;99.90
9482;DHT22;4779;48.062;11.672;2023-07-13T05:12:30;18.20;99.90
9482;DHT22;4779;48.062;11.672;2023-07-13T05:14:58;18.20;99.90
9482;DHT22;4779;48.062;11.672;2023-07-13T05:17:25;18.40;99.90
9482;DHT22;4779;48.062;11.672;2023-07-13T05:19:52;18.40;99.90
9482;DHT22;4779;48.062;11.672;2023-07-13T05:22:20;18.50;99.90
9482;DHT22;4779;48.062;11.672;2023-07-13T05:24:47;18.60;99.90
9482;DHT22;4779;48.062;11.672;2023-07-13T05:27:14;18.60;99.90
9482;DHT22;4779;48.062;11.672;2023-07-13T05:29:41;18.50;99.90
9482;DHT22;4779;48.062;11.672;2023-07-13T05:32:08;18.50;99.90
9482;DHT22;4779;48.062;11.672;2023-07-13T05:34:34;18.50;99.90
9482;DHT22;4779;48.062;11.672;2023-07-13T05:37:02;18.50;99.90
9482;DHT22;4779;48.062;11.672;2023-07-13T05:39:30;18.50;99.90
9482;DHT22;4779;48.062;11.672;2023-07-13T05:41:57;18.50;99.90
9482;DHT22;4779;48.062;11.672;2023-07-13T05:44:24;18.50;99.90
9482;DHT22;4779;48.062;11.672;2023-07-13T05:46:50;18.60;99.90
9482;DHT22;4779;48.062;11.672;2023-07-13T05:49:17;18.60;99.90
9482;DHT22;4779;48.062;11.672;2023-07-13T05:51:44;18.60;99.90
9482;DHT22;4779;48.062;11.672;2023-07-13T05:54:11;18.60;99.90
9482;DHT22;4779;48.062;11.672;2023-07-13T05:56:39;18.50;99.90
9482;DHT22;4779;48.062;11.672;2023-07-13T05:59:06;18.50;99.90
9482;DHT22;4779;48.062;11.672;2023-07-13T06:01:33;18.60;99.90
9482;DHT22;4779;48.062;11.672;2023-07-13T06:04:00;18.60;99.90
9482;DHT22;4779;48.062;11.672;2023-07-13T06:06:27;18.80;99.90
9482;DHT22;4779;48.062;11.672;2023-07-13T06:08:54;18.80;99.90
9482;DHT22;4779;48.062;11.672;2023-07-13T06:11:23;18.80;99.90
9482;DHT22;4779;48.062;11.672;2023-07-13T06:13:51;18.70;99.90
9482;DHT22;4779;48.062;11.672;2023-07-13T06:16:20;18.60;99.90
9482;DHT22;4779;48.062;11.672;2023-07-13T06:18:47;18.60;99.90
9482;DHT22;4779;48.062;11.672;2023-07-13T06:21:16;18.60;99.90
9482;DHT22;4779;48.062;11.672;2023-07-13T06:23:43;18.60;99.90
9482;DHT22;4779;48.062;11.672;2023-07-13T06:26:11;18.70;99.90
9482;DHT22;4779;48.062;11.672;2023-07-13T06:28:38;18.70;99.90
9482;DHT22;4779;48.062;11.672;2023-07-13T06:31:08;18.80;99.90
9482;DHT22;4779;48.062;11.672;2023-07-13T06:33:35;18.80;99.90
9482;DHT22;4779;48.062;11.672;2023-07-13T06:36:04;18.80;99.90
9482;DHT22;4779;48.062;11.672;2023-07-13T06:38:31;18.80;99.90
9482;DHT22;4779;48.062;11.672;2023-07-13T06:40:58;18.80;99.90
9482;DHT22;4779;48.062;11.672;2023-07-13T06:43:25;18.80;99.90
9482;DHT22;4779;48.062;11.672;2023-07-13T06:45:55;18.80;99.90
9482;DHT22;4779;48.062;11.672;2023-07-13T06:48:24;18.80;99.90
9482;DHT22;4779;48.062;11.672;2023-07-13T06:50:51;18.80;99.90
9482;DHT22;4779;48.062;11.672;2023-07-13T06:53:19;18.90;99.90
9482;DHT22;4779;48.062;11.672;2023-07-13T06:55:47;19.00;99.90
9482;DHT22;4779;48.062;11.672;2023-07-13T06:58:15;19.10;99.90
9482;DHT22;4779;48.062;11.672;2023-07-13T07:00:42;19.10;99.90
9482;DHT22;4779;48.062;11.672;2023-07-13T07:03:09;19.10;99.90
9482;DHT22;4779;48.062;11.672;2023-07-13T07:05:37;19.10;99.90
9482;DHT22;4779;48.062;11.672;2023-07-13T07:08:04;19.10;99.90
9482;DHT22;4779;48.062;11.672;2023-07-13T07:10:31;19.10;99.90
9482;DHT22;4779;48.062;11.672;2023-07-13T07:12:58;19.10;99.90
9482;DHT22;4779;48.062;11.672;2023-07-13T07:15:26;19.10;99.90
9482;DHT22;4779;48.062;11.672;2023-07-13T07:17:53;19.20;99.90
9482;DHT22;4779;48.062;11.672;2023-07-13T07:20:21;19.30;99.90
9482;DHT22;4779;48.062;11.672;2023-07-13T07:22:49;19.30;99.90
9482;DHT22;4779;48.062;11.672;2023-07-13T07:25:16;19.30;99.90
9482;DHT22;4779;48.062;11.672;2023-07-13T07:27:43;19.30;99.90
9482;DHT22;4779;48.062;11.672;2023-07-13T07:30:10;19.50;99.90
9482;DHT22;4779;48.062;11.672;2023-07-13T07:32:38;19.50;99.90
9482;DHT22;4779;48.062;11.672;2023-07-13T07:35:05;19.60;99.90
9482;DHT22;4779;48.062;11.672;2023-07-13T07:37:32;19.50;99.90
9482;DHT22;4779;48.062;11.672;2023-07-13T07:40:00;19.50;99.90
9482;DHT22;4779;48.062;11.672;2023-07-13T07:42:28;19.40;99.90
9482;DHT22;4779;48.062;11.672;2023-07-13T07:44:55;19.20;99.90
9482;DHT22;4779;48.062;11.672;2023-07-13T07:47:22;19.20;99.90
9482;DHT22;4779;48.062;11.672;2023-07-13T07:49:49;19.10;99.90
9482;DHT22;4779;48.062;11.672;2023-07-13T07:52:16;19.10;99.90
9482;DHT22;4779;48.062;11.672;2023-07-13T07:54:43;19.00;99.90
9482;DHT22;4779;48.062;11.672;2023-07-13T07:57:11;19.00;99.90
9482;DHT22;4779;48.062;11.672;2023-07-13T07:59:38;19.10;99.90
9482;DHT22;4779;48.062;11.672;2023-07-13T08:02:08;19.20;99.90
9482;DHT22;4779;48.062;11.672;2023-07-13T08:04:35;19.20;99.90
9482;DHT22;4779;48.062;11.672;2023-07-13T08:07:02;19.20;99.90
9482;DHT22;4779;48.062;11.672;2023-07-13T08:09:29;19.10;99.90
9482;DHT22;4779;48.062;11.672;2023-07-13T08:11:56;19.10;99.90
9482;DHT22;4779;48.062;11.672;2023-07-13T08:14:24;19.00;99.90
9482;DHT22;4779;48.062;11.672;2023-07-13T08:16:51;19.00;99.90
9482;DHT22;4779;48.062;11.672;2023-07-13T08:19:19;18.90;99.90
9482;DHT22;4779;48.062;11.672;2023-07-13T08:21:46;18.80;99.90
9482;DHT22;4779;48.062;11.672;2023-07-13T08:24:14;18.70;99.90
9482;DHT22;4779;48.062;11.672;2023-07-13T08:26:40;18.50;99.90
9482;DHT22;4779;48.062;11.672;2023-07-13T08:29:07;18.50;99.90
9482;DHT22;4779;48.062;11.672;2023-07-13T08:31:36;18.60;99.90
9482;DHT22;4779;48.062;11.672;2023-07-13T08:34:03;18.60;99.90
9482;DHT22;4779;48.062;11.672;2023-07-13T08:36:30;18.50;99.90
9482;DHT22;4779;48.062;11.672;2023-07-13T08:38:57;18.50;99.90
9482;DHT22;4779;48.062;11.672;2023-07-13T08:41:23;18.30;99.90
9482;DHT22;4779;48.062;11.672;2023-07-13T08:43:58;18.30;99.90
9482;DHT22;4779;48.062;11.672;2023-07-13T08:46:29;18.50;99.90
9482;DHT22;4779;48.062;11.672;2023-07-13T08:49:02;18.50;99.90
9482;DHT22;4779;48.062;11.672;2023-07-13T08:51:35;18.40;99.90
9482;DHT22;4779;48.062;11.672;2023-07-13T08:54:12;18.50;99.90
9482;DHT22;4779;48.062;11.672;2023-07-13T08:56:45;18.60;99.90
9482;DHT22;4779;48.062;11.672;2023-07-13T08:59:15;18.50;99.90
9482;DHT22;4779;48.062;11.672;2023-07-13T09:02:14;18.40;99.90
9482;DHT22;4779;48.062;11.672;2023-07-13T09:04:48;18.40;99.90
9482;DHT22;4779;48.062;11.672;2023-07-13T09:07:22;18.40;99.90
9482;DHT22;4779;48.062;11.672;2023-07-13T09:10:00;18.50;99.90
9482;DHT22;4779;48.062;11.672;2023-07-13T09:12:35;18.60;99.90
9482;DHT22;4779;48.062;11.672;2023-07-13T09:15:21;18.60;99.90
9482;DHT22;4779;48.062;11.672;2023-07-13T09:17:50;18.60;99.90
9482;DHT22;4779;48.062;11.672;2023-07-13T09:20:23;18.70;99.90
9482;DHT22;4779;48.062;11.672;2023-07-13T09:22:53;18.60;99.90
9482;DHT22;4779;48.062;11.672;2023-07-13T09:25:24;18.60;99.90
9482;DHT22;4779;48.062;11.672;2023-07-13T09:27:55;18.60;99.90
9482;DHT22;4779;48.062;11.672;2023-07-13T09:30:31;18.70;99.90
9482;DHT22;4779;48.062;11.672;2023-07-13T09:32:59;18.70;99.90
9482;DHT22;4779;48.062;11.672;2023-07-13T09:35:29;18.80;99.90
9482;DHT22;4779;48.062;11.672;2023-07-13T09:38:03;18.80;99.90
9482;DHT22;4779;48.062;11.672;2023-07-13T09:40:38;18.90;99.90
9482;DHT22;4779;48.062;11.672;2023-07-13T09:43:08;18.80;99.90
9482;DHT22;4779;48.062;11.672;2023-07-13T09:45:37;18.80;99.90
9482;DHT22;4779;48.062;11.672;2023-07-13T09:48:06;18.80;99.90
9482;DHT22;4779;48.062;11.672;2023-07-13T09:50:34;18.90;99.90
9482;DHT22;4779;48.062;11.672;2023-07-13T09:53:02;19.00;99.90
9482;DHT22;4779;48.062;11.672;2023-07-13T09:55:31;19.00;99.90
9482;DHT22;4779;48.062;11.672;2023-07-13T09:58:04;19.00;99.90
9482;DHT22;4779;48.062;11.672;2023-07-13T10:00:32;19.00;99.90
9482;DHT22;4779;48.062;11.672;2023-07-13T10:03:01;19.10;99.90
9482;DHT22;4779;48.062;11.672;2023-07-13T10:05:37;19.20;99.90
9482;DHT22;4779;48.062;11.672;2023-07-13T10:08:04;19.30;99.90
9482;DHT22;4779;48.062;11.672;2023-07-13T10:10:33;19.40;99.90
9482;DHT22;4779;48.062;11.672;2023-07-13T10:13:01;19.20;99.90
9482;DHT22;4779;48.062;11.672;2023-07-13T10:15:30;19.30;99.90
9482;DHT22;4779;48.062;11.672;2023-07-13T10:17:58;19.30;99.90
9482;DHT22;4779;48.062;11.672;2023-07-13T10:20:26;19.30;99.90
9482;DHT22;4779;48.062;11.672;2023-07-13T10:22:59;19.40;99.90
9482;DHT22;4779;48.062;11.672;2023-07-13T10:25:30;19.60;99.90
9482;DHT22;4779;48.062;11.672;2023-07-13T10:28:03;20.00;99.90
9482;DHT22;4779;48.062;11.672;2023-07-13T10:30:35;20.30;99.90
9482;DHT22;4779;48.062;11.672;2023-07-13T10:33:10;20.60;99.90
9482;DHT22;4779;48.062;11.672;2023-07-13T10:35:40;21.20;99.90
9482;DHT22;4779;48.062;11.672;2023-07-13T10:38:13;21.30;99.90
9482;DHT22;4779;48.062;11.672;2023-07-13T10:40:43;21.80;99.90
9482;DHT22;4779;48.062;11.672;2023-07-13T10:43:16;22.10;99.90
9482;DHT22;4779;48.062;11.672;2023-07-13T10:45:47;22.10;99.90
9482;DHT22;4779;48.062;11.672;2023-07-13T10:48:16;22.00;99.90
9482;DHT22;4779;48.062;11.672;2023-07-13T10:50:46;22.10;99.90
9482;DHT22;4779;48.062;11.672;2023-07-13T10:53:20;22.30;99.90
9482;DHT22;4779;48.062;11.672;2023-07-13T10:55:58;22.20;99.90
9482;DHT22;4779;48.062;11.672;2023-07-13T10:58:31;22.50;99.90
9482;DHT22;4779;48.062;11.672;2023-07-13T11:01:06;22.70;99.90
9482;DHT22;4779;48.062;11.672;2023-07-13T11:03:35;22.90;98.80
9482;DHT22;4779;48.062;11.672;2023-07-13T11:06:09;23.20;99.20
9482;DHT22;4779;48.062;11.672;2023-07-13T11:08:52;23.40;97.80
9482;DHT22;4779;48.062;11.672;2023-07-13T11:11:34;23.30;98.60
9482;DHT22;4779;48.062;11.672;2023-07-13T11:14:02;23.30;98.50
9482;DHT22;4779;48.062;11.672;2023-07-13T11:16:42;23.40;99.10
9482;DHT22;4779;48.062;11.672;2023-07-13T11:19:38;23.20;99.10
9482;DHT22;4779;48.062;11.672;2023-07-13T11:22:41;23.40;97.70
9482;DHT22;4779;48.062;11.672;2023-07-13T11:25:31;23.60;99.90
9482;DHT22;4779;48.062;11.672;2023-07-13T11:28:21;23.80;96.80
9482;DHT22;4779;48.062;11.672;2023-07-13T11:30:50;23.80;97.60
9482;DHT22;4779;48.062;11.672;2023-07-13T11:33:28;24.40;99.90
9482;DHT22;4779;48.062;11.672;2023-07-13T11:36:00;24.50;96.60
9482;DHT22;4779;48.062;11.672;2023-07-13T11:38:33;24.60;97.10
9482;DHT22;4779;48.062;11.672;2023-07-13T11:41:06;24.70;98.40
9482;DHT22;4779;48.062;11.672;2023-07-13T11:43:33;25.00;97.00
9482;DHT22;4779;48.062;11.672;2023-07-13T11:46:13;25.10;99.90
9482;DHT22;4779;48.062;11.672;2023-07-13T11:48:40;25.20;96.40
9482;DHT22;4779;48.062;11.672;2023-07-13T11:51:14;25.30;97.60
9482;DHT22;4779;48.062;11.672;2023-07-13T11:53:46;25.30;95.20
9482;DHT22;4779;48.062;11.672;2023-07-13T11:56:14;25.80;95.00
9482;DHT22;4779;48.062;11.672;2023-07-13T11:58:41;25.70;95.30
9482;DHT22;4779;48.062;11.672;2023-07-13T12:01:16;25.50;93.80
9482;DHT22;4779;48.062;11.672;2023-07-13T12:03:45;25.70;95.80
9482;DHT22;4779;48.062;11.672;2023-07-13T12:06:24;25.40;93.90
9482;DHT22;4779;48.062;11.672;2023-07-13T12:08:56;25.50;93.60
9482;DHT22;4779;48.062;11.672;2023-07-13T12:11:25;25.20;92.70
9482;DHT22;4779;48.062;11.672;2023-07-13T12:13:52;25.50;93.10
9482;DHT22;4779;48.062;11.672;2023-07-13T12:16:25;25.40;92.50
9482;DHT22;4779;48.062;11.672;2023-07-13T12:18:53;25.10;94.00
9482;DHT22;4779;48.062;11.672;2023-07-13T12:21:30;25.20;90.30
9482;DHT22;4779;48.062;11.672;2023-07-13T12:23:58;25.50;93.50
9482;DHT22;4779;48.062;11.672;2023-07-13T12:26:29;25.40;90.60
9482;DHT22;4779;48.062;11.672;2023-07-13T12:28:59;25.50;91.20
9482;DHT22;4779;48.062;11.672;2023-07-13T12:31:34;25.90;95.50
9482;DHT22;4779;48.062;11.672;2023-07-13T12:34:03;26.10;91.00
9482;DHT22;4779;48.062;11.672;2023-07-13T12:36:32;26.10;87.40
9482;DHT22;4779;48.062;11.672;2023-07-13T12:39:04;26.00;91.10
9482;DHT22;4779;48.062;11.672;2023-07-13T12:41:33;25.90;88.00
9482;DHT22;4779;48.062;11.672;2023-07-13T12:44:00;25.60;86.70
9482;DHT22;4779;48.062;11.672;2023-07-13T12:46:27;26.10;89.00
9482;DHT22;4779;48.062;11.672;2023-07-13T12:48:57;26.50;83.80
9482;DHT22;4779;48.062;11.672;2023-07-13T12:51:26;26.60;79.90
9482;DHT22;4779;48.062;11.672;2023-07-13T12:53:57;27.00;84.20
9482;DHT22;4779;48.062;11.672;2023-07-13T12:56:26;27.40;87.10
9482;DHT22;4779;48.062;11.672;2023-07-13T12:58:58;27.60;82.60
9482;DHT22;4779;48.062;11.672;2023-07-13T13:01:27;27.10;81.60
9482;DHT22;4779;48.062;11.672;2023-07-13T13:03:54;26.20;84.30
9482;DHT22;4779;48.062;11.672;2023-07-13T13:06:24;25.50;84.50
9482;DHT22;4779;48.062;11.672;2023-07-13T13:08:53;25.00;87.60
9482;DHT22;4779;48.062;11.672;2023-07-13T13:11:22;25.10;90.50
9482;DHT22;4779;48.062;11.672;2023-07-13T13:13:50;25.60;87.90
9482;DHT22;4779;48.062;11.672;2023-07-13T13:16:21;25.50;84.60
9482;DHT22;4779;48.062;11.672;2023-07-13T13:18:49;25.00;89.30
9482;DHT22;4779;48.062;11.672;2023-07-13T13:21:17;24.90;90.50
9482;DHT22;4779;48.062;11.672;2023-07-13T13:23:44;24.80;90.60
9482;DHT22;4779;48.062;11.672;2023-07-13T13:26:12;24.60;92.60
9482;DHT22;4779;48.062;11.672;2023-07-13T13:28:41;24.50;90.40
9482;DHT22;4779;48.062;11.672;2023-07-13T13:31:10;24.80;89.30
9482;DHT22;4779;48.062;11.672;2023-07-13T13:33:40;25.50;91.00
9482;DHT22;4779;48.062;11.672;2023-07-13T13:36:14;25.90;90.00
9482;DHT22;4779;48.062;11.672;2023-07-13T13:38:43;25.90;90.60
9482;DHT22;4779;48.062;11.672;2023-07-13T13:41:10;25.60;87.60
9482;DHT22;4779;48.062;11.672;2023-07-13T13:43:39;25.20;90.00
9482;DHT22;4779;48.062;11.672;2023-07-13T13:46:14;24.80;87.90
9482;DHT22;4779;48.062;11.672;2023-07-13T13:48:44;24.60;89.70
9482;DHT22;4779;48.062;11.672;2023-07-13T13:51:15;24.00;90.90
9482;DHT22;4779;48.062;11.672;2023-07-13T13:53:43;23.50;91.60
9482;DHT22;4779;48.062;11.672;2023-07-13T13:56:11;23.30;90.30
9482;DHT22;4779;48.062;11.672;2023-07-13T13:58:38;23.20;91.00
9482;DHT22;4779;48.062;11.672;2023-07-13T14:01:12;23.30;91.30
9482;DHT22;4779;48.062;11.672;2023-07-13T14:03:40;23.40;92.00
9482;DHT22;4779;48.062;11.672;2023-07-13T14:06:12;23.50;92.60
9482;DHT22;4779;48.062;11.672;2023-07-13T14:08:39;23.30;90.80
9482;DHT22;4779;48.062;11.672;2023-07-13T14:11:08;23.30;91.10
9482;DHT22;4779;48.062;11.672;2023-07-13T14:13:41;23.20;90.60
9482;DHT22;4779;48.062;11.672;2023-07-13T14:16:11;23.40;92.50
9482;DHT22;4779;48.062;11.672;2023-07-13T14:18:38;23.60;91.80
9482;DHT22;4779;48.062;11.672;2023-07-13T14:21:12;23.90;91.60
9482;DHT22;4779;48.062;11.672;2023-07-13T14:23:40;24.00;91.70
9482;DHT22;4779;48.062;11.672;2023-07-13T14:26:11;24.00;90.90
9482;DHT22;4779;48.062;11.672;2023-07-13T14:28:42;24.00;92.30
9482;DHT22;4779;48.062;11.672;2023-07-13T14:31:09;24.40;92.00
9482;DHT22;4779;48.062;11.672;2023-07-13T14:33:36;24.80;91.70
9482;DHT22;4779;48.062;11.672;2023-07-13T14:36:21;25.00;88.70
9482;DHT22;4779;48.062;11.672;2023-07-13T14:38:48;25.00;88.10
9482;DHT22;4779;48.062;11.672;2023-07-13T14:41:15;25.00;88.30
9482;DHT22;4779;48.062;11.672;2023-07-13T14:43:42;24.90;89.10
9482;DHT22;4779;48.062;11.672;2023-07-13T14:46:19;24.90;91.10
9482;DHT22;4779;48.062;11.672;2023-07-13T14:48:49;24.60;90.50
9482;DHT22;4779;48.062;11.672;2023-07-13T14:51:16;24.60;90.20
9482;DHT22;4779;48.062;11.672;2023-07-13T14:53:44;24.80;92.50
9482;DHT22;4779;48.062;11.672;2023-07-13T14:56:11;25.10;91.30
9482;DHT22;4779;48.062;11.672;2023-07-13T14:58:38;25.40;90.60
9482;DHT22;4779;48.062;11.672;2023-07-13T15:01:09;25.50;89.30
9482;DHT22;4779;48.062;11.672;2023-07-13T15:03:40;25.30;89.90
9482;DHT22;4779;48.062;11.672;2023-07-13T15:06:10;25.30;90.00
9482;DHT22;4779;48.062;11.672;2023-07-13T15:08:38;25.10;90.70
9482;DHT22;4779;48.062;11.672;2023-07-13T15:11:07;24.80;90.30
9482;DHT22;4779;48.062;11.672;2023-07-13T15:13:37;24.80;90.70
9482;DHT22;4779;48.062;11.672;2023-07-13T15:16:05;24.70;90.90
9482;DHT22;4779;48.062;11.672;2023-07-13T15:18:37;24.60;89.80
9482;DHT22;4779;48.062;11.672;2023-07-13T15:21:08;24.70;90.50
9482;DHT22;4779;48.062;11.672;2023-07-13T15:23:39;24.50;89.70
9482;DHT22;4779;48.062;11.672;2023-07-13T15:26:12;24.40;92.10
9482;DHT22;4779;48.062;11.672;2023-07-13T15:28:40;24.40;90.30
9482;DHT22;4779;48.062;11.672;2023-07-13T15:31:18;24.50;91.00
9482;DHT22;4779;48.062;11.672;2023-07-13T15:33:45;24.60;87.30
9482;DHT22;4779;48.062;11.672;2023-07-13T15:36:14;24.40;90.00
9482;DHT22;4779;48.062;11.672;2023-07-13T15:38:43;24.30;89.30
9482;DHT22;4779;48.062;11.672;2023-07-13T15:41:17;24.30;89.50
9482;DHT22;4779;48.062;11.672;2023-07-13T15:43:44;24.40;87.80
9482;DHT22;4779;48.062;11.672;2023-07-13T15:46:10;24.40;87.80
9482;DHT22;4779;48.062;11.672;2023-07-13T15:48:38;24.30;85.20
9482;DHT22;4779;48.062;11.672;2023-07-13T15:51:08;24.10;87.90
9482;DHT22;4779;48.062;11.672;2023-07-13T15:53:39;24.00;88.10
9482;DHT22;4779;48.062;11.672;2023-07-13T15:56:17;23.90;87.50
9482;DHT22;4779;48.062;11.672;2023-07-13T15:58:44;23.70;87.90